createdAt,value
2017-12-20T00:01:11.275Z,19.65
2017-12-20T00:03:38.284Z,19.05
2017-12-20T00:06:04.634Z,17.35
2017-12-20T00:08:31.206Z,17.05
2017-12-20T00:10:57.567Z,16.33
2017-12-20T00:13:23.902Z,16.75
2017-12-20T00:15:50.201Z,18.00
2017-12-20T00:18:16.522Z,17.10
2017-12-20T00:20:42.827Z,17.40
2017-12-20T00:23:09.221Z,16.35
2017-12-20T00:25:36.908Z,15.85
2017-12-20T00:28:03.329Z,18.00
2017-12-20T00:30:29.645Z,14.65
2017-12-20T00:32:56.708Z,12.20
2017-12-20T00:35:24.148Z,14.90
2017-12-20T00:37:50.498Z,16.20
2017-12-20T00:40:16.843Z,15.43
2017-12-20T00:42:43.111Z,11.73
2017-12-20T00:45:09.625Z,15.55
2017-12-20T00:47:35.993Z,13.05
2017-12-20T00:50:03.879Z,14.13
2017-12-20T00:52:31.022Z,14.50
2017-12-20T00:54:57.334Z,13.30
2017-12-20T00:57:23.770Z,17.83
2017-12-20T00:59:50.080Z,14.57
2017-12-20T01:02:16.377Z,15.30
2017-12-20T01:04:43.424Z,13.05
2017-12-20T01:07:09.779Z,16.55
2017-12-20T01:09:36.161Z,15.27
2017-12-20T01:12:02.369Z,17.52
2017-12-20T01:14:28.696Z,19.20
2017-12-20T01:16:55.041Z,16.62
2017-12-20T01:19:21.381Z,17.77
2017-12-20T01:21:47.841Z,18.08
2017-12-20T01:24:15.253Z,22.90
2017-12-20T01:26:41.810Z,19.95
2017-12-20T01:29:08.156Z,20.80
2017-12-20T01:31:35.334Z,16.10
2017-12-20T01:34:01.873Z,18.15
2017-12-20T01:36:28.235Z,16.10
2017-12-20T01:38:54.532Z,19.20
2017-12-20T01:41:20.840Z,20.50
2017-12-20T01:43:47.176Z,22.02
2017-12-20T01:46:13.577Z,21.33
2017-12-20T01:48:39.912Z,22.00
2017-12-20T01:51:06.217Z,23.40
2017-12-20T01:53:33.304Z,19.50
2017-12-20T01:55:59.429Z,23.05
2017-12-20T01:58:25.764Z,22.55
2017-12-20T02:00:51.909Z,23.62
2017-12-20T02:03:18.985Z,23.02
2017-12-20T02:05:45.870Z,25.85
2017-12-20T02:08:12.041Z,28.75
2017-12-20T02:10:38.201Z,26.05
2017-12-20T02:13:05.064Z,28.40
2017-12-20T02:15:32.085Z,28.20
2017-12-20T02:17:58.216Z,32.78
2017-12-20T02:20:24.354Z,30.35
2017-12-20T02:22:50.527Z,31.35
2017-12-20T02:25:16.676Z,36.53
2017-12-20T02:27:43.549Z,44.20
2017-12-20T02:30:10.418Z,44.80
2017-12-20T02:32:36.553Z,45.92
2017-12-20T02:35:03.712Z,40.90
2017-12-20T02:37:29.792Z,44.47
2017-12-20T02:39:55.922Z,41.17
2017-12-20T02:42:22.045Z,48.42
2017-12-20T02:44:48.713Z,52.42
2017-12-20T02:47:14.841Z,55.17
2017-12-20T02:49:40.969Z,56.80
2017-12-20T02:52:07.829Z,58.45
2017-12-20T02:54:34.721Z,55.90
2017-12-20T02:57:00.860Z,52.60
2017-12-20T02:59:27.007Z,51.95
2017-12-20T03:01:53.194Z,58.87
2017-12-20T03:04:19.525Z,58.30
2017-12-20T03:06:46.378Z,59.42
2017-12-20T03:09:12.722Z,62.03
2017-12-20T03:11:39.085Z,56.83
2017-12-20T03:14:06.872Z,57.13
2017-12-20T03:16:33.231Z,62.75
2017-12-20T03:19:00.291Z,63.15
2017-12-20T03:21:26.424Z,62.05
2017-12-20T03:23:53.503Z,70.68
2017-12-20T03:26:19.848Z,68.25
2017-12-20T03:28:48.025Z,73.40
2017-12-20T03:31:14.822Z,69.28
2017-12-20T03:33:40.982Z,69.35
2017-12-20T03:36:07.091Z,74.20
2017-12-20T03:38:33.222Z,75.70
2017-12-20T03:40:59.371Z,58.60
2017-12-20T03:43:25.480Z,62.38
2017-12-20T03:45:52.364Z,56.47
2017-12-20T03:48:18.494Z,61.00
2017-12-20T03:50:44.625Z,58.72
2017-12-20T03:53:10.732Z,52.80
2017-12-20T03:55:36.851Z,67.00
2017-12-20T03:58:03.029Z,62.38
2017-12-20T04:00:29.313Z,58.63
2017-12-20T04:02:56.405Z,59.60
2017-12-20T04:05:22.547Z,53.50
2017-12-20T04:07:48.880Z,58.03
2017-12-20T04:10:15.031Z,56.88
2017-12-20T04:12:41.360Z,64.20
2017-12-20T04:15:08.477Z,61.00
2017-12-20T04:17:34.615Z,58.20
2017-12-20T04:20:00.962Z,51.42
2017-12-20T04:22:27.997Z,60.03
2017-12-20T04:24:54.124Z,48.25
2017-12-20T04:27:20.267Z,49.85
2017-12-20T04:29:46.448Z,40.10
2017-12-20T04:32:12.597Z,47.03
2017-12-20T04:34:38.700Z,39.55
2017-12-20T04:37:04.802Z,41.83
2017-12-20T04:39:31.113Z,41.35
2017-12-20T04:41:57.473Z,37.15
2017-12-20T04:44:23.801Z,37.78
2017-12-20T04:46:50.180Z,42.20
2017-12-20T04:49:17.265Z,39.03
2017-12-20T04:51:43.587Z,36.50
2017-12-20T04:54:09.892Z,37.38
2017-12-20T04:56:36.237Z,35.63
2017-12-20T04:59:02.841Z,32.00
2017-12-20T05:01:29.925Z,36.03
2017-12-20T05:03:57.022Z,29.58
2017-12-20T05:06:23.133Z,32.60
2017-12-20T05:08:49.237Z,33.38
2017-12-20T05:11:15.544Z,35.60
2017-12-20T05:13:41.859Z,35.65
2017-12-20T05:16:08.193Z,39.70
2017-12-20T05:18:35.265Z,37.72
2017-12-20T05:21:01.387Z,36.88
2017-12-20T05:23:28.538Z,33.95
2017-12-20T05:25:55.985Z,35.15
2017-12-20T05:28:22.216Z,32.13
2017-12-20T05:30:48.456Z,36.97
2017-12-20T05:33:14.585Z,34.20
2017-12-20T05:35:40.678Z,32.60
2017-12-20T05:38:07.536Z,33.88
2017-12-20T05:40:34.417Z,27.65
2017-12-20T05:43:01.341Z,33.35
2017-12-20T05:45:28.193Z,36.00
2017-12-20T05:47:54.760Z,34.90
2017-12-20T05:50:20.882Z,33.15
2017-12-20T05:52:47.747Z,34.10
2017-12-20T05:55:14.053Z,33.92
2017-12-20T05:57:40.198Z,36.67
2017-12-20T06:00:06.440Z,36.13
2017-12-20T06:02:32.549Z,31.92
2017-12-20T06:04:58.660Z,35.33
2017-12-20T06:07:24.830Z,35.40
2017-12-20T06:09:50.982Z,37.05
2017-12-20T06:12:17.188Z,41.67
2017-12-20T06:14:43.329Z,39.40
2017-12-20T06:17:09.468Z,39.55
2017-12-20T06:19:36.422Z,41.90
2017-12-20T06:22:04.017Z,44.40
2017-12-20T06:24:30.912Z,37.70
2017-12-20T06:26:57.029Z,43.87
2017-12-20T06:29:23.185Z,43.72
2017-12-20T06:31:49.366Z,45.78
2017-12-20T06:34:15.476Z,46.88
2017-12-20T06:36:41.605Z,48.45
2017-12-20T06:39:07.708Z,45.75
2017-12-20T06:41:33.831Z,48.67
2017-12-20T06:44:00.350Z,48.42
2017-12-20T06:46:26.545Z,57.50
2017-12-20T06:48:53.393Z,63.30
2017-12-20T06:51:19.617Z,59.13
2017-12-20T06:53:45.831Z,59.63
2017-12-20T06:56:12.021Z,60.47
2017-12-20T06:58:39.406Z,62.72
2017-12-20T07:01:05.588Z,63.87
2017-12-20T07:03:31.779Z,61.20
2017-12-20T07:05:58.688Z,56.88
2017-12-20T07:08:24.824Z,63.95
2017-12-20T07:10:51.089Z,58.38
2017-12-20T07:13:17.295Z,70.53
2017-12-20T07:15:43.406Z,65.20
2017-12-20T07:18:09.811Z,63.75
2017-12-20T07:20:35.912Z,61.92
2017-12-20T07:23:02.849Z,54.88
2017-12-20T07:25:28.954Z,78.47
2017-12-20T07:27:55.304Z,78.15
2017-12-20T07:30:21.543Z,61.20
2017-12-20T07:32:47.648Z,76.07
2017-12-20T07:35:14.613Z,77.10
2017-12-20T07:37:40.773Z,90.25
2017-12-20T07:40:06.913Z,78.10
2017-12-20T07:42:33.036Z,84.72
2017-12-20T07:44:59.965Z,80.95
2017-12-20T07:47:26.095Z,83.30
2017-12-20T07:49:52.197Z,79.85
2017-12-20T07:52:18.533Z,80.45
2017-12-20T07:54:44.648Z,77.93
2017-12-20T07:57:10.762Z,96.22
2017-12-20T07:59:36.934Z,80.95
2017-12-20T08:02:03.079Z,75.22
2017-12-20T08:04:29.292Z,68.32
2017-12-20T08:06:55.448Z,70.00
2017-12-20T08:09:21.578Z,69.35
2017-12-20T08:11:47.711Z,71.80
2017-12-20T08:14:14.037Z,79.10
2017-12-20T08:16:40.513Z,67.50
2017-12-20T08:19:07.548Z,74.78
2017-12-20T08:21:33.661Z,72.40
2017-12-20T08:23:59.976Z,66.78
2017-12-20T08:26:26.343Z,80.80
2017-12-20T08:28:53.078Z,68.93
2017-12-20T08:31:20.025Z,64.55
2017-12-20T08:33:46.176Z,67.57
2017-12-20T08:36:13.120Z,77.65
2017-12-20T08:38:39.212Z,71.95
2017-12-20T08:41:05.345Z,71.35
2017-12-20T08:43:35.554Z,66.18
2017-12-20T08:46:02.029Z,65.03
2017-12-20T08:48:28.425Z,59.88
2017-12-20T08:50:54.786Z,66.20
2017-12-20T08:53:21.076Z,61.00
2017-12-20T08:55:47.424Z,59.35
2017-12-20T08:58:14.504Z,65.20
2017-12-20T09:00:40.909Z,67.95
2017-12-20T09:03:07.265Z,56.17
2017-12-20T09:05:33.568Z,58.60
2017-12-20T09:07:59.883Z,55.22
2017-12-20T09:10:26.620Z,57.85
2017-12-20T09:12:53.917Z,66.90
2017-12-20T09:15:21.035Z,55.95
2017-12-20T09:17:47.356Z,54.65
2017-12-20T09:20:13.661Z,57.85
2017-12-20T09:22:39.994Z,54.40
2017-12-20T09:25:06.350Z,62.58
2017-12-20T09:27:34.306Z,62.15
2017-12-20T09:30:00.604Z,61.90
2017-12-20T09:32:26.934Z,64.05
2017-12-20T09:34:54.413Z,67.97
2017-12-20T09:37:21.454Z,59.95
2017-12-20T09:39:47.609Z,54.28
2017-12-20T09:42:13.741Z,55.17
2017-12-20T09:44:39.850Z,54.35
2017-12-20T09:47:05.976Z,52.50
2017-12-20T09:49:33.018Z,50.35
2017-12-20T09:51:59.891Z,48.40
2017-12-20T09:54:26.081Z,56.63
2017-12-20T09:56:52.204Z,49.95
2017-12-20T09:59:18.523Z,45.38
2017-12-20T10:01:45.584Z,48.83
2017-12-20T10:04:11.829Z,57.45
2017-12-20T10:06:38.067Z,59.63
2017-12-20T10:09:04.306Z,51.00
2017-12-20T10:11:30.422Z,49.35
2017-12-20T10:13:57.508Z,48.03
2017-12-20T10:16:30.628Z,48.58
2017-12-20T10:18:57.187Z,52.53
2017-12-20T10:21:23.337Z,52.83
2017-12-20T10:23:49.452Z,51.80
2017-12-20T10:26:15.601Z,52.92
2017-12-20T10:28:42.471Z,54.92
2017-12-20T10:31:15.522Z,59.97
2017-12-20T10:33:41.652Z,65.85
2017-12-20T10:36:08.498Z,63.30
2017-12-20T10:38:34.617Z,61.97
2017-12-20T10:41:00.735Z,61.78
2017-12-20T10:43:27.600Z,59.58
2017-12-20T10:45:54.602Z,58.65
2017-12-20T10:48:23.609Z,60.70
2017-12-20T10:50:49.767Z,68.28
2017-12-20T10:53:15.934Z,74.95
2017-12-20T10:55:42.063Z,65.90
2017-12-20T10:58:08.182Z,63.67
2017-12-20T11:00:34.306Z,72.80
2017-12-20T11:03:00.430Z,63.72
2017-12-20T11:05:26.591Z,65.57
2017-12-20T11:10:24.112Z,74.93
2017-12-20T11:12:50.263Z,63.70
2017-12-20T11:15:17.190Z,62.47
2017-12-20T11:17:44.043Z,59.58
2017-12-20T11:20:10.165Z,75.25
2017-12-20T11:22:36.357Z,72.30
2017-12-20T11:25:03.295Z,67.03
2017-12-20T11:27:35.036Z,78.18
2017-12-20T11:30:01.228Z,85.45
2017-12-20T11:32:27.369Z,73.97
2017-12-20T11:34:53.575Z,83.35
2017-12-20T11:37:20.428Z,84.68
2017-12-20T11:39:46.566Z,87.28
2017-12-20T11:44:44.125Z,78.72
2017-12-20T11:47:10.493Z,86.10
2017-12-20T11:49:36.721Z,76.37
2017-12-20T11:52:03.597Z,79.22
2017-12-20T11:54:30.473Z,80.72
2017-12-20T11:56:56.729Z,80.80
2017-12-20T12:01:55.650Z,78.65
2017-12-20T12:04:21.774Z,89.93
2017-12-20T12:06:48.686Z,80.60
2017-12-20T12:09:15.576Z,82.78
2017-12-20T12:11:41.748Z,77.43
2017-12-20T12:14:07.857Z,82.07
2017-12-20T12:16:33.957Z,89.25
2017-12-20T12:19:03.635Z,81.93
2017-12-20T12:21:29.785Z,83.15
2017-12-20T12:23:55.936Z,77.10
2017-12-20T12:26:22.108Z,80.47
2017-12-20T12:28:48.245Z,81.68
2017-12-20T12:31:14.517Z,77.97
2017-12-20T12:33:40.855Z,73.68
2017-12-20T12:36:12.049Z,82.05
2017-12-20T12:38:38.190Z,73.55
2017-12-20T12:41:05.168Z,80.20
2017-12-20T12:43:32.084Z,72.93
2017-12-20T12:45:59.037Z,71.10
2017-12-20T12:48:25.979Z,71.87
2017-12-20T12:50:52.184Z,80.18
2017-12-20T12:53:21.498Z,75.35
2017-12-20T12:55:47.846Z,79.75
2017-12-20T12:58:13.957Z,80.15
2017-12-20T13:00:40.083Z,79.78
2017-12-20T13:03:06.257Z,86.07
2017-12-20T13:05:32.568Z,79.18
2017-12-20T13:07:59.432Z,76.35
2017-12-20T13:10:30.879Z,72.30
2017-12-20T13:12:57.011Z,79.95
2017-12-20T13:15:23.223Z,80.47
2017-12-20T13:17:49.346Z,83.60
2017-12-20T13:20:15.557Z,78.18
2017-12-20T13:22:41.704Z,78.20
2017-12-20T13:25:07.870Z,76.20
2017-12-20T13:27:34.747Z,80.55
2017-12-20T13:30:02.677Z,94.37
2017-12-20T13:32:28.790Z,103.45
2017-12-20T13:34:55.646Z,99.75
2017-12-20T13:37:21.760Z,106.18
2017-12-20T13:39:47.864Z,88.55
2017-12-20T13:42:13.967Z,83.32
2017-12-20T13:44:40.263Z,73.53
2017-12-20T13:47:06.417Z,66.43
2017-12-20T13:49:40.978Z,71.35
2017-12-20T13:52:07.125Z,71.37
2017-12-20T13:54:33.351Z,79.78
2017-12-20T13:57:00.232Z,70.95
2017-12-20T13:59:27.154Z,79.15
2017-12-20T14:01:53.262Z,83.87
2017-12-20T14:04:20.120Z,75.12
2017-12-20T14:06:52.786Z,72.65
2017-12-20T14:09:18.901Z,72.32
2017-12-20T14:11:45.082Z,79.25
2017-12-20T14:14:11.203Z,75.15
2017-12-20T14:16:37.360Z,66.93
2017-12-20T14:19:03.540Z,68.40
2017-12-20T14:21:29.656Z,78.07
2017-12-20T14:23:55.788Z,69.05
2017-12-20T14:26:28.631Z,68.00
2017-12-20T14:28:54.832Z,60.90
2017-12-20T14:31:21.752Z,69.40
2017-12-20T14:33:47.901Z,68.50
2017-12-20T14:36:14.844Z,69.47
2017-12-20T14:38:41.090Z,70.15
2017-12-20T14:41:07.208Z,62.72
2017-12-20T14:43:36.757Z,66.05
2017-12-20T14:46:02.985Z,65.45
2017-12-20T14:48:29.116Z,65.87
2017-12-20T14:50:55.240Z,74.62
2017-12-20T14:53:22.080Z,65.43
2017-12-20T14:55:48.397Z,62.33
2017-12-20T14:58:15.358Z,74.80
2017-12-20T15:00:45.208Z,81.70
2017-12-20T15:03:11.414Z,80.15
2017-12-20T15:05:37.588Z,82.35
2017-12-20T15:08:03.768Z,88.55
2017-12-20T15:10:30.008Z,85.40
2017-12-20T15:12:56.138Z,92.22
2017-12-20T15:15:22.280Z,80.18
2017-12-20T15:17:48.457Z,86.95
2017-12-20T15:20:14.584Z,78.18
2017-12-20T15:22:40.749Z,92.57
2017-12-20T15:25:06.873Z,97.40
2017-12-20T15:27:36.960Z,73.93
2017-12-20T15:30:03.292Z,74.47
2017-12-20T15:32:29.460Z,88.15
2017-12-20T15:34:55.604Z,76.60
2017-12-20T15:37:22.046Z,87.53
2017-12-20T15:39:49.162Z,83.70
2017-12-20T15:42:15.550Z,77.00
2017-12-20T15:44:42.453Z,67.10
2017-12-20T15:47:08.605Z,78.70
2017-12-20T15:49:34.740Z,72.72
2017-12-20T15:52:02.053Z,64.53
2017-12-20T15:54:28.205Z,76.95
2017-12-20T15:56:54.441Z,76.62
2017-12-20T15:59:21.081Z,70.57
2017-12-20T16:01:47.180Z,67.62
2017-12-20T16:04:14.806Z,77.03
2017-12-20T16:06:40.934Z,78.45
2017-12-20T16:09:07.150Z,69.35
2017-12-20T16:11:34.014Z,71.18
2017-12-20T16:14:00.168Z,82.32
2017-12-20T16:16:27.109Z,72.90
2017-12-20T16:18:53.224Z,72.47
2017-12-20T16:21:19.429Z,73.80
2017-12-20T16:23:45.946Z,79.30
2017-12-20T16:26:12.192Z,66.55
2017-12-20T16:28:39.139Z,74.05
2017-12-20T16:31:05.358Z,82.70
2017-12-20T16:33:31.640Z,76.00
2017-12-20T16:35:58.576Z,71.43
2017-12-20T16:38:24.716Z,74.22
2017-12-20T16:40:50.846Z,85.10
2017-12-20T16:43:17.007Z,94.57
2017-12-20T16:45:43.274Z,79.57
2017-12-20T16:48:10.183Z,84.93
2017-12-20T16:50:36.432Z,99.15
2017-12-20T16:53:02.789Z,99.97
2017-12-20T16:55:34.853Z,107.60
2017-12-20T16:58:01.033Z,114.30
2017-12-20T17:00:27.212Z,100.25
2017-12-20T17:02:54.189Z,106.30
2017-12-20T17:05:20.392Z,115.25
2017-12-20T17:07:46.713Z,106.53
2017-12-20T17:10:12.869Z,108.93
2017-12-20T17:12:39.136Z,107.53
2017-12-20T17:15:05.836Z,113.75
2017-12-20T17:17:32.909Z,133.70
2017-12-20T17:19:59.084Z,138.20
2017-12-20T17:22:25.257Z,118.85
2017-12-20T17:24:51.457Z,99.20
2017-12-20T17:27:17.820Z,109.90
2017-12-20T17:29:44.307Z,106.70
2017-12-20T17:32:10.561Z,108.90
2017-12-20T17:34:36.717Z,109.53
2017-12-20T17:37:02.931Z,97.85
2017-12-20T17:39:29.793Z,93.90
2017-12-20T17:41:56.731Z,105.20
2017-12-20T17:44:23.190Z,94.90
2017-12-20T17:46:50.060Z,103.62
2017-12-20T17:49:16.299Z,94.43
2017-12-20T17:51:43.165Z,90.12
2017-12-20T17:54:09.329Z,103.05
2017-12-20T17:56:35.484Z,102.65
2017-12-20T17:59:01.673Z,91.10
2017-12-20T18:01:28.611Z,85.32
2017-12-20T18:03:54.793Z,92.00
2017-12-20T18:06:21.708Z,75.25
2017-12-20T18:08:47.860Z,87.93
2017-12-20T18:11:14.074Z,81.65
2017-12-20T18:13:41.005Z,78.55
2017-12-20T18:16:07.234Z,74.32
2017-12-20T18:18:33.580Z,78.57
2017-12-20T18:20:59.741Z,93.65
2017-12-20T18:23:25.903Z,83.35
2017-12-20T18:25:53.060Z,69.57
2017-12-20T18:28:19.860Z,68.00
2017-12-20T18:30:46.041Z,77.20
2017-12-20T18:33:15.926Z,75.22
2017-12-20T18:35:42.382Z,75.80
2017-12-20T18:38:08.514Z,63.13
2017-12-20T18:40:35.512Z,67.97
2017-12-20T18:43:01.674Z,74.75
2017-12-20T18:45:27.995Z,72.95
2017-12-20T18:47:54.294Z,56.88
2017-12-20T18:50:22.270Z,68.22
2017-12-20T18:52:48.462Z,72.90
2017-12-20T18:55:15.324Z,65.43
2017-12-20T18:57:41.568Z,65.40
2017-12-20T19:00:08.527Z,63.28
2017-12-20T19:02:34.669Z,63.92
2017-12-20T19:05:00.811Z,66.80
2017-12-20T19:07:27.685Z,63.20
2017-12-20T19:09:53.852Z,73.50
2017-12-20T19:12:20.026Z,58.30
2017-12-20T19:14:46.232Z,59.30
2017-12-20T19:17:12.436Z,53.72
2017-12-20T19:19:39.337Z,53.83
2017-12-20T19:22:05.597Z,55.05
2017-12-20T19:24:31.802Z,47.17
2017-12-20T19:26:58.706Z,64.20
2017-12-20T19:29:24.866Z,57.62
2017-12-20T19:31:51.005Z,53.63
2017-12-20T19:34:17.132Z,54.45
2017-12-20T19:36:44.144Z,53.90
2017-12-20T19:39:11.022Z,55.12
2017-12-20T19:41:37.152Z,52.60
2017-12-20T19:44:04.818Z,51.72
2017-12-20T19:46:31.814Z,41.97
2017-12-20T19:48:57.989Z,46.90
2017-12-20T19:51:24.164Z,53.60
2017-12-20T19:53:50.408Z,43.80
2017-12-20T19:56:16.530Z,53.13
2017-12-20T19:58:42.636Z,51.42
2017-12-20T20:01:08.765Z,44.53
2017-12-20T20:03:34.950Z,46.35
2017-12-20T20:06:01.156Z,45.20
2017-12-20T20:08:28.086Z,44.67
2017-12-20T20:10:54.254Z,39.90
2017-12-20T20:13:20.412Z,49.03
2017-12-20T20:15:47.264Z,47.08
2017-12-20T20:18:14.138Z,49.40
2017-12-20T20:20:40.294Z,55.03
2017-12-20T20:23:06.354Z,46.03
2017-12-20T20:25:32.456Z,54.58
2017-12-20T20:27:58.684Z,55.47
2017-12-20T20:30:24.801Z,46.08
2017-12-20T20:32:50.918Z,49.60
2017-12-20T20:35:21.044Z,46.17
2017-12-20T20:37:47.144Z,47.62
2017-12-20T20:40:13.303Z,43.85
2017-12-20T20:42:40.245Z,44.17
2017-12-20T20:45:06.365Z,46.78
2017-12-20T20:47:34.352Z,48.75
2017-12-20T20:50:00.688Z,43.33
2017-12-20T20:52:27.587Z,51.63
2017-12-20T20:54:53.897Z,50.78
2017-12-20T20:57:20.161Z,44.88
2017-12-20T20:59:46.287Z,45.67
2017-12-20T21:02:12.473Z,47.45
2017-12-20T21:04:39.328Z,41.40
2017-12-20T21:07:05.473Z,36.10
2017-12-20T21:09:31.571Z,36.03
2017-12-20T21:14:29.076Z,33.17
2017-12-20T21:16:55.228Z,40.97
2017-12-20T21:19:21.341Z,41.67
2017-12-20T21:21:47.460Z,40.83
2017-12-20T21:24:13.548Z,40.50
2017-12-20T21:26:40.227Z,45.47
2017-12-20T21:29:06.365Z,38.20
2017-12-20T21:31:32.464Z,44.60
2017-12-20T21:33:58.585Z,38.13
2017-12-20T21:36:25.489Z,42.95
2017-12-20T21:38:51.598Z,42.10
2017-12-20T21:41:18.656Z,47.50
2017-12-20T21:43:44.769Z,50.88
2017-12-20T21:46:10.935Z,40.60
2017-12-20T21:48:39.873Z,41.15
2017-12-20T21:51:06.732Z,43.65
2017-12-20T21:53:32.896Z,39.20
2017-12-20T21:56:02.156Z,44.83
2017-12-20T21:58:28.272Z,43.40
2017-12-20T22:00:54.395Z,54.45
2017-12-20T22:03:20.504Z,44.92
2017-12-20T22:05:47.520Z,45.28
2017-12-20T22:08:13.719Z,41.92
2017-12-20T22:10:39.875Z,39.40
2017-12-20T22:13:05.988Z,38.85
2017-12-20T22:15:32.151Z,38.63
2017-12-20T22:17:58.985Z,36.10
2017-12-20T22:20:25.208Z,43.63
2017-12-20T22:22:51.351Z,32.20
2017-12-20T22:25:17.458Z,37.55
2017-12-20T22:27:43.606Z,33.33
2017-12-20T22:30:10.534Z,37.63
2017-12-20T22:32:36.680Z,30.27
2017-12-20T22:35:02.815Z,38.78
2017-12-20T22:37:28.936Z,42.28
2017-12-20T22:39:55.814Z,35.28
2017-12-20T22:42:22.132Z,32.13
2017-12-20T22:44:48.461Z,29.42
2017-12-20T22:47:14.668Z,36.92
2017-12-20T22:49:40.792Z,28.42
2017-12-20T22:52:08.277Z,34.78
2017-12-20T22:54:34.533Z,31.58
2017-12-20T22:57:01.445Z,31.33
2017-12-20T23:01:58.791Z,30.83
2017-12-20T23:04:24.928Z,32.92
2017-12-20T23:06:51.208Z,25.90
2017-12-20T23:09:17.374Z,26.55
2017-12-20T23:11:43.508Z,27.23
2017-12-20T23:14:09.628Z,29.40
2017-12-20T23:16:36.640Z,27.87
2017-12-20T23:19:02.833Z,26.70
2017-12-20T23:21:29.716Z,29.05
2017-12-20T23:23:55.909Z,27.27
2017-12-20T23:26:22.068Z,31.17
2017-12-20T23:28:48.250Z,33.78
2017-12-20T23:31:14.436Z,24.52
2017-12-20T23:33:40.637Z,28.80
2017-12-20T23:36:07.221Z,26.90
2017-12-20T23:38:34.143Z,29.65
2017-12-20T23:41:00.316Z,30.50
2017-12-20T23:43:26.492Z,25.70
2017-12-20T23:45:52.673Z,26.95
2017-12-20T23:48:19.560Z,24.35
2017-12-20T23:50:45.692Z,29.50
2017-12-20T23:53:11.960Z,29.20
2017-12-20T23:55:38.275Z,28.45
2017-12-20T23:58:04.523Z,32.58
